Norient Star — 9HRV9 — position and weather

sailwx.info

Track history (hours):
 
Tides and Currents Weather Stations Pressure Air Temp Water Temp Dewpoint Dewpoint Depression Visibility Wind Speed Wind Dir Waves Ship Positions

Norient Star

Last reported at 2016-Jul-25 19:19 UTC. Time now 2016-Jul-25 20:11 UTC.
Position N 01°16' E 103°41'.

Length 180 m; draft 9.2 m.

Type: Ship. MMSI: 249434000.

Date/timePositionNaut miles runAvg speedWind from/ knotsBaromVisibWave heightAir tempDewpointWater temp
2016-Jul-25 19:19N 01°16' E 103°41'0 0.0
2016-Jul-25 18:31N 01°16' E 103°41'0 0.0
2016-Jul-25 13:31N 01°16' E 103°41'0 0.0
2016-Jul-25 10:13N 01°16' E 103°41'0 0.0
2016-Jul-25 09:25N 01°16' E 103°41'0 0.0
2016-Jul-25 08:28N 01°16' E 103°41'0 0.1
2016-Jul-25 07:22N 01°16' E 103°41'0 0.0
2016-Jul-24 18:06N 01°16' E 103°41'1 1.0
2016-Jul-24 17:32N 01°15' E 103°41'5 4.3
2016-Jul-24 16:29N 01°11' E 103°41'8 9.1
2016-Jul-24 15:33N 01°12' E 103°50'9 8.9
2016-Jul-24 14:33N 01°17' E 103°57'1 0.5
2016-Jul-24 13:26N 01°17' E 103°57'0 0.0
2016-Jul-24 12:32N 01°17' E 103°57'0 0.0
2016-Jul-24 11:32N 01°17' E 103°57'0 0.0
2016-Jul-24 10:32N 01°17' E 103°57'0 0.0
2016-Jul-24 09:32N 01°17' E 103°57'0 0.0
2016-Jul-24 08:26N 01°17' E 103°57'0 0.1
2016-Jul-24 07:32N 01°17' E 103°57'0 0.1
2016-Jul-24 06:29N 01°17' E 103°57'0 0.0
2016-Jul-24 04:26N 01°17' E 103°57'0 0.0
2016-Jul-24 03:32N 01°17' E 103°57'0 0.1
2016-Jul-24 02:26N 01°17' E 103°57'0 0.0
2016-Jul-24 01:32N 01°17' E 103°57'0 0.1
2016-Jul-24 00:32N 01°17' E 103°57'0 0.0
2016-Jul-23 23:26N 01°17' E 103°57'0 0.0
2016-Jul-23 21:32N 01°17' E 103°57'0 0.0
2016-Jul-23 19:32N 01°17' E 103°57'0 0.1
2016-Jul-23 18:32N 01°17' E 103°57'0 0.1
2016-Jul-23 17:26N 01°17' E 103°57'0 0.0
2016-Jul-23 16:20N 01°17' E 103°57'0 0.0
2016-Jul-23 11:26N 01°17' E 103°57'1 1.1
2016-Jul-23 10:33N 01°16' E 103°56'6 6.5
2016-Jul-23 09:33N 01°16' E 104°03'  
Track history (hours):
 
Tides and Currents Weather Stations Pressure Air Temp Water Temp Dewpoint Dewpoint Depression Visibility Wind Speed Wind Dir Waves Ship Positions

Norient Star

Last reported at 2016-Jul-25 19:19 UTC. Time now 2016-Jul-25 20:11 UTC.
Position N 01°16' E 103°41'.

Length 180 m; draft 9.2 m.

Type: Ship. MMSI: 249434000.

Date/timePositionNaut miles runAvg speedWind from/ knotsBaromVisibWave heightAir tempDewpointWater temp
2016-Jul-25 19:19N 01°16' E 103°41'0 0.0
2016-Jul-25 18:31N 01°16' E 103°41'0 0.0
2016-Jul-25 13:31N 01°16' E 103°41'0 0.0
2016-Jul-25 10:13N 01°16' E 103°41'0 0.0
2016-Jul-25 09:25N 01°16' E 103°41'0 0.0
2016-Jul-25 08:28N 01°16' E 103°41'0 0.1
2016-Jul-25 07:22N 01°16' E 103°41'0 0.0
2016-Jul-24 18:06N 01°16' E 103°41'1 1.0
2016-Jul-24 17:32N 01°15' E 103°41'5 4.3
2016-Jul-24 16:29N 01°11' E 103°41'8 9.1
2016-Jul-24 15:33N 01°12' E 103°50'9 8.9
2016-Jul-24 14:33N 01°17' E 103°57'1 0.5
2016-Jul-24 13:26N 01°17' E 103°57'0 0.0
2016-Jul-24 12:32N 01°17' E 103°57'0 0.0
2016-Jul-24 11:32N 01°17' E 103°57'0 0.0
2016-Jul-24 10:32N 01°17' E 103°57'0 0.0
2016-Jul-24 09:32N 01°17' E 103°57'0 0.0
2016-Jul-24 08:26N 01°17' E 103°57'0 0.1
2016-Jul-24 07:32N 01°17' E 103°57'0 0.1
2016-Jul-24 06:29N 01°17' E 103°57'0 0.0
2016-Jul-24 04:26N 01°17' E 103°57'0 0.0
2016-Jul-24 03:32N 01°17' E 103°57'0 0.1
2016-Jul-24 02:26N 01°17' E 103°57'0 0.0
2016-Jul-24 01:32N 01°17' E 103°57'0 0.1
2016-Jul-24 00:32N 01°17' E 103°57'0 0.0
2016-Jul-23 23:26N 01°17' E 103°57'0 0.0
2016-Jul-23 21:32N 01°17' E 103°57'0 0.0
2016-Jul-23 19:32N 01°17' E 103°57'0 0.1
2016-Jul-23 18:32N 01°17' E 103°57'0 0.1
2016-Jul-23 17:26N 01°17' E 103°57'0 0.0
2016-Jul-23 16:20N 01°17' E 103°57'0 0.0
2016-Jul-23 11:26N 01°17' E 103°57'1 1.1
2016-Jul-23 10:33N 01°16' E 103°56'6 6.5
2016-Jul-23 09:33N 01°16' E 104°03'  

Dump ship's entire track history